Time;durP1;ratioP1;P1;durP2;ratioP2;P2;SDS_P1;SDS_P2;PMS_P1;PMS_P2;Temp;Humidity;BMP_temperature;BMP_pressure;BME280_temperature;BME280_humidity;BME280_pressure;Samples;Min_cycle;Max_cycle;Signal;HPM_P1;HPM_P2
2021/10/10 00:01:24;;;;;;;1.83;1.13;;;;;;;;;;5109401;28;20489;-60
2021/10/10 00:03:51;;;;;;;2.00;1.17;;;;;;;;;;5109122;28;20031;-60
2021/10/10 00:06:18;;;;;;;3.17;1.20;;;;;;;;;;5109983;28;20027;-60
2021/10/10 00:08:45;;;;;;;3.47;1.07;;;;;;;;;;5087718;28;20472;-60
2021/10/10 00:11:11;;;;;;;3.07;1.70;;;;;;;;;;5073964;28;20097;-60
2021/10/10 00:13:38;;;;;;;6.93;2.70;;;;;;;;;;5088081;28;20032;-60
2021/10/10 00:16:05;;;;;;;4.83;3.00;;;;;;;;;;5093732;28;20506;-60
2021/10/10 00:18:32;;;;;;;4.83;2.90;;;;;;;;;;5093312;28;20032;-60
2021/10/10 00:20:59;;;;;;;4.30;2.83;;;;;;;;;;5089506;28;20051;-60
2021/10/10 00:23:26;;;;;;;3.37;1.70;;;;;;;;;;5088839;28;20073;-60
2021/10/10 00:25:53;;;;;;;3.73;1.87;;;;;;;;;;5088750;28;20485;-60
2021/10/10 00:28:19;;;;;;;4.43;2.00;;;;;;;;;;5088509;28;20035;-60
2021/10/10 00:30:46;;;;;;;3.03;1.70;;;;;;;;;;5093714;28;20064;-60
2021/10/10 00:33:13;;;;;;;2.93;1.63;;;;;;;;;;5093506;28;20023;-60
2021/10/10 00:35:40;;;;;;;3.60;1.70;;;;;;;;;;5097832;28;20023;-60
2021/10/10 00:38:07;;;;;;;6.00;3.03;;;;;;;;;;5093575;28;20367;-60
2021/10/10 00:40:33;;;;;;;4.80;2.53;;;;;;;;;;5093691;28;20024;-60
2021/10/10 00:43:00;;;;;;;4.37;2.00;;;;;;;;;;5095340;28;20023;-60
2021/10/10 00:45:27;;;;;;;5.70;1.60;;;;;;;;;;5108766;28;20034;-60
2021/10/10 00:47:54;;;;;;;5.10;1.57;;;;;;;;;;5108237;28;20020;-60
2021/10/10 00:50:21;;;;;;;4.27;1.27;;;;;;;;;;5099385;28;20036;-60
2021/10/10 00:52:48;;;;;;;3.90;1.27;;;;;;;;;;5110829;28;20027;-59
2021/10/10 00:55:15;;;;;;;2.30;0.93;;;;;;;;;;5113647;28;20031;-60
2021/10/10 00:57:45;;;;;;;2.07;1.00;;;;;;;;;;5108334;28;20027;-60
2021/10/10 01:00:12;;;;;;;2.63;1.17;;;;;;;;;;5093086;28;20055;-60
2021/10/10 01:02:40;;;;;;;1.93;0.90;;;;;;;;;;5093224;28;20145;-60
2021/10/10 01:05:07;;;;;;;3.27;1.53;;;;;;;;;;5088116;28;20028;-60
2021/10/10 01:07:34;;;;;;;3.27;1.17;;;;;;;;;;5087992;28;20367;-60
2021/10/10 01:10:01;;;;;;;3.63;1.10;;;;;;;;;;5087214;28;20040;-60
2021/10/10 01:12:27;;;;;;;2.60;1.07;;;;;;;;;;5090467;28;20031;-60
2021/10/10 01:14:54;;;;;;;1.97;0.83;;;;;;;;;;5112200;28;20030;-60
2021/10/10 01:17:24;;;;;;;3.23;1.00;;;;;;;;;;5112901;28;20054;-60
2021/10/10 01:19:51;;;;;;;2.73;0.90;;;;;;;;;;5112706;28;20027;-60
2021/10/10 01:22:18;;;;;;;2.27;1.03;;;;;;;;;;5098848;28;20093;-60
2021/10/10 01:24:45;;;;;;;3.83;1.10;;;;;;;;;;5092901;28;20024;-60
2021/10/10 01:27:13;;;;;;;2.93;1.00;;;;;;;;;;5089029;28;20032;-60
2021/10/10 01:29:40;;;;;;;7.10;1.50;;;;;;;;;;5107661;28;20189;-60
2021/10/10 01:32:07;;;;;;;2.20;1.10;;;;;;;;;;5107493;28;20027;-60
2021/10/10 01:34:34;;;;;;;1.93;1.03;;;;;;;;;;5107058;28;20553;-60
2021/10/10 01:37:01;;;;;;;2.17;1.30;;;;;;;;;;5110727;28;20532;-60
2021/10/10 01:39:28;;;;;;;3.17;1.30;;;;;;;;;;5112722;28;20440;-60
2021/10/10 01:41:55;;;;;;;3.00;1.40;;;;;;;;;;5113028;28;20110;-59
2021/10/10 01:44:22;;;;;;;5.07;1.83;;;;;;;;;;5111257;28;20027;-60
2021/10/10 01:46:49;;;;;;;2.30;1.40;;;;;;;;;;5112967;28;20030;-59
2021/10/10 01:49:15;;;;;;;3.23;1.67;;;;;;;;;;5109003;28;20106;-60
2021/10/10 01:51:43;;;;;;;3.07;1.40;;;;;;;;;;5103171;28;20020;-60
2021/10/10 01:54:10;;;;;;;6.00;1.60;;;;;;;;;;5106793;28;20081;-60
2021/10/10 01:56:36;;;;;;;3.20;1.53;;;;;;;;;;5107361;28;20038;-62
2021/10/10 01:59:03;;;;;;;6.47;2.20;;;;;;;;;;5101921;28;20043;-62
2021/10/10 02:01:30;;;;;;;6.57;1.83;;;;;;;;;;5092155;28;20081;-63
2021/10/10 02:03:57;;;;;;;3.70;1.73;;;;;;;;;;5092345;28;20118;-62
2021/10/10 02:06:24;;;;;;;5.07;1.70;;;;;;;;;;5092216;28;20031;-62
2021/10/10 02:08:50;;;;;;;3.93;1.43;;;;;;;;;;5091876;28;20032;-62
2021/10/10 02:11:17;;;;;;;6.50;1.80;;;;;;;;;;5089261;28;20483;-62
2021/10/10 02:13:44;;;;;;;6.97;1.83;;;;;;;;;;5086993;28;20024;-62
2021/10/10 02:16:11;;;;;;;5.10;2.40;;;;;;;;;;5104094;28;20131;-62
2021/10/10 02:18:38;;;;;;;6.33;1.80;;;;;;;;;;5106808;28;20371;-61
2021/10/10 02:21:05;;;;;;;6.97;2.83;;;;;;;;;;5108196;28;20027;-60
2021/10/10 02:23:32;;;;;;;5.03;2.03;;;;;;;;;;5114144;28;20031;-60
2021/10/10 02:25:59;;;;;;;9.37;2.57;;;;;;;;;;5116490;28;20031;-60
2021/10/10 02:28:25;;;;;;;4.93;1.43;;;;;;;;;;5115917;28;20042;-59
2021/10/10 02:30:52;;;;;;;2.87;1.20;;;;;;;;;;5114727;28;20023;-62
2021/10/10 02:33:19;;;;;;;2.97;1.80;;;;;;;;;;5113575;28;20027;-62
2021/10/10 02:35:46;;;;;;;3.60;1.73;;;;;;;;;;5110791;28;20031;-59
2021/10/10 02:38:13;;;;;;;7.07;1.97;;;;;;;;;;5111213;28;20028;-60
2021/10/10 02:40:40;;;;;;;4.77;1.50;;;;;;;;;;5111053;28;20023;-60
2021/10/10 02:43:06;;;;;;;5.10;1.83;;;;;;;;;;5111889;28;20035;-60
2021/10/10 02:45:33;;;;;;;2.23;1.30;;;;;;;;;;5115677;28;20028;-59
2021/10/10 02:48:00;;;;;;;4.83;1.93;;;;;;;;;;5099990;28;20024;-59
2021/10/10 02:50:27;;;;;;;2.80;1.10;;;;;;;;;;5095775;28;20031;-59
2021/10/10 02:52:55;;;;;;;1.87;0.93;;;;;;;;;;5112943;28;20030;-60
2021/10/10 02:55:22;;;;;;;6.03;1.20;;;;;;;;;;5114435;28;20038;-60
2021/10/10 02:57:49;;;;;;;6.50;1.10;;;;;;;;;;5108563;28;20040;-60
2021/10/10 03:00:16;;;;;;;2.83;0.90;;;;;;;;;;5110359;28;20024;-60
2021/10/10 03:02:42;;;;;;;3.83;0.90;;;;;;;;;;5109191;28;20059;-60
2021/10/10 03:05:09;;;;;;;8.10;0.93;;;;;;;;;;5110972;28;20428;-60
2021/10/10 03:07:38;;;;;;;7.07;1.40;;;;;;;;;;5115463;28;20050;-59
2021/10/10 03:10:05;;;;;;;3.13;1.33;;;;;;;;;;5115774;28;20047;-60
2021/10/10 03:12:32;;;;;;;4.10;1.63;;;;;;;;;;5115388;28;20019;-60
2021/10/10 03:14:58;;;;;;;4.73;1.20;;;;;;;;;;5115715;28;20035;-59
2021/10/10 03:17:25;;;;;;;11.53;1.50;;;;;;;;;;5110972;28;20092;-60
2021/10/10 03:19:52;;;;;;;3.63;1.13;;;;;;;;;;5090178;28;20043;-59
2021/10/10 03:22:19;;;;;;;4.07;1.13;;;;;;;;;;5089967;28;20271;-60
2021/10/10 03:24:45;;;;;;;8.23;1.10;;;;;;;;;;5089962;28;20103;-60
2021/10/10 03:27:12;;;;;;;3.30;1.30;;;;;;;;;;5092494;28;20027;-60
2021/10/10 03:29:39;;;;;;;4.87;1.67;;;;;;;;;;5115059;28;20367;-60
2021/10/10 03:32:06;;;;;;;6.87;2.43;;;;;;;;;;5114415;28;20092;-60
2021/10/10 03:34:32;;;;;;;5.00;1.93;;;;;;;;;;5094285;28;20028;-60
2021/10/10 03:36:59;;;;;;;4.73;1.70;;;;;;;;;;5094938;28;20374;-59
2021/10/10 03:39:26;;;;;;;3.53;1.80;;;;;;;;;;5094451;28;20097;-60
2021/10/10 03:41:53;;;;;;;3.83;1.90;;;;;;;;;;5102391;28;20039;-60
2021/10/10 03:44:20;;;;;;;2.47;1.40;;;;;;;;;;5109697;28;20024;-60
2021/10/10 03:46:46;;;;;;;5.10;1.70;;;;;;;;;;5109678;28;20373;-60
2021/10/10 03:49:13;;;;;;;3.17;1.60;;;;;;;;;;5104581;28;20470;-60
2021/10/10 03:51:40;;;;;;;4.50;1.60;;;;;;;;;;5113962;28;20031;-59
2021/10/10 03:54:58;;;;;;;4.67;0.93;;;;;;;;;;5109582;28;20024;-59
2021/10/10 03:57:09;;;;;;;2.07;0.70;;;;;;;;;;5081327;28;20046;-59
2021/10/10 03:59:36;;;;;;;10.33;1.33;;;;;;;;;;5113944;28;20076;-59
2021/10/10 04:02:06;;;;;;;6.30;3.00;;;;;;;;;;5114106;28;20535;-59
2021/10/10 04:04:36;;;;;;;4.50;1.30;;;;;;;;;;5076720;28;20110;-60
2021/10/10 04:07:03;;;;;;;2.23;0.93;;;;;;;;;;5109071;28;20054;-59
2021/10/10 04:09:30;;;;;;;3.27;1.30;;;;;;;;;;5068649;28;20032;-59
2021/10/10 04:11:57;;;;;;;4.57;1.47;;;;;;;;;;5068997;28;20060;-59
2021/10/10 04:14:24;;;;;;;2.70;1.10;;;;;;;;;;5092977;28;20024;-60
2021/10/10 04:16:50;;;;;;;3.80;1.60;;;;;;;;;;5094157;28;20095;-59
2021/10/10 04:19:17;;;;;;;7.07;2.00;;;;;;;;;;5093851;28;20040;-59
2021/10/10 04:21:44;;;;;;;3.40;1.13;;;;;;;;;;5107601;28;20784;-59
2021/10/10 04:24:11;;;;;;;1.63;0.80;;;;;;;;;;5113890;28;20019;-59
2021/10/10 04:26:37;;;;;;;3.33;1.23;;;;;;;;;;5108471;28;20027;-60
2021/10/10 04:29:04;;;;;;;6.50;1.47;;;;;;;;;;5088731;28;20107;-60
2021/10/10 04:31:31;;;;;;;1.87;0.97;;;;;;;;;;5088275;28;20016;-60
2021/10/10 04:33:58;;;;;;;2.70;1.27;;;;;;;;;;5089484;28;20540;-59
2021/10/10 04:36:25;;;;;;;7.77;1.00;;;;;;;;;;5105611;28;20569;-60
2021/10/10 04:38:51;;;;;;;2.03;0.70;;;;;;;;;;5113380;28;20548;-59
2021/10/10 04:41:18;;;;;;;1.77;0.90;;;;;;;;;;5113898;28;20573;-59
2021/10/10 04:43:45;;;;;;;1.43;0.87;;;;;;;;;;5112781;28;20035;-59
2021/10/10 04:46:12;;;;;;;1.93;0.57;;;;;;;;;;5113688;28;20028;-58
2021/10/10 04:48:38;;;;;;;3.90;0.70;;;;;;;;;;5108791;28;20020;-58
2021/10/10 04:51:06;;;;;;;4.43;0.87;;;;;;;;;;5108922;28;20474;-58
2021/10/10 04:53:33;;;;;;;1.10;0.63;;;;;;;;;;5091959;28;20110;-58
2021/10/10 04:55:59;;;;;;;5.37;1.17;;;;;;;;;;5088427;28;20027;-58
2021/10/10 04:58:26;;;;;;;3.43;0.70;;;;;;;;;;5106244;28;20505;-58
2021/10/10 05:00:53;;;;;;;5.20;0.80;;;;;;;;;;5113747;28;20489;-58
2021/10/10 05:03:20;;;;;;;4.70;1.33;;;;;;;;;;5113732;28;20153;-58
2021/10/10 05:05:46;;;;;;;2.23;1.20;;;;;;;;;;5111547;28;20046;-58
2021/10/10 05:08:13;;;;;;;4.73;1.27;;;;;;;;;;5099566;28;20564;-58
2021/10/10 05:10:40;;;;;;;4.77;1.10;;;;;;;;;;5088281;28;20040;-58
2021/10/10 05:13:07;;;;;;;2.73;0.80;;;;;;;;;;5088189;28;20032;-58
2021/10/10 05:15:34;;;;;;;1.47;0.73;;;;;;;;;;5088134;28;20031;-58
2021/10/10 05:18:01;;;;;;;3.37;0.90;;;;;;;;;;5087813;28;20031;-58
2021/10/10 05:20:27;;;;;;;6.40;1.20;;;;;;;;;;5091666;28;20024;-58
2021/10/10 05:22:54;;;;;;;2.77;1.30;;;;;;;;;;5102678;28;20035;-58
2021/10/10 05:25:21;;;;;;;6.63;1.40;;;;;;;;;;5112704;28;20107;-58
2021/10/10 05:27:48;;;;;;;2.53;1.10;;;;;;;;;;5103956;28;20081;-58
2021/10/10 05:30:15;;;;;;;2.10;1.10;;;;;;;;;;5093020;28;20022;-58
2021/10/10 05:32:41;;;;;;;5.37;1.30;;;;;;;;;;5089069;28;20146;-58
2021/10/10 05:35:08;;;;;;;2.60;1.03;;;;;;;;;;5087572;28;20031;-59
2021/10/10 05:37:35;;;;;;;2.13;1.10;;;;;;;;;;5087774;28;20696;-58
2021/10/10 05:40:02;;;;;;;5.93;1.00;;;;;;;;;;5106942;28;20028;-59
2021/10/10 05:42:28;;;;;;;6.57;1.70;;;;;;;;;;5110905;28;20024;-58
2021/10/10 05:44:56;;;;;;;5.73;1.30;;;;;;;;;;5112945;28;20018;-58
2021/10/10 05:47:23;;;;;;;6.20;1.40;;;;;;;;;;5112630;28;20027;-58
2021/10/10 05:49:49;;;;;;;3.57;1.50;;;;;;;;;;5112997;28;20077;-58
2021/10/10 05:52:22;;;;;;;6.07;1.53;;;;;;;;;;5112285;28;20406;-58
2021/10/10 05:54:49;;;;;;;3.03;1.00;;;;;;;;;;5101877;28;20042;-58
2021/10/10 05:57:19;;;;;;;5.93;1.10;;;;;;;;;;5102992;28;20416;-58
2021/10/10 05:59:46;;;;;;;4.03;1.13;;;;;;;;;;5107317;28;20042;-59
2021/10/10 06:02:13;;;;;;;2.63;1.33;;;;;;;;;;5107892;28;20032;-58
2021/10/10 06:04:40;;;;;;;8.20;1.50;;;;;;;;;;5110477;28;20455;-58
2021/10/10 06:07:07;;;;;;;5.27;1.30;;;;;;;;;;5111118;28;20055;-58
2021/10/10 06:09:34;;;;;;;3.40;1.23;;;;;;;;;;5111366;28;20019;-59
2021/10/10 06:12:01;;;;;;;2.10;0.70;;;;;;;;;;5092111;28;20062;-58
2021/10/10 06:14:29;;;;;;;1.63;0.97;;;;;;;;;;5092188;28;20028;-58
2021/10/10 06:16:56;;;;;;;4.70;1.37;;;;;;;;;;5089268;28;20028;-58
2021/10/10 06:19:23;;;;;;;2.17;1.00;;;;;;;;;;5087102;28;20040;-58
2021/10/10 06:21:49;;;;;;;6.10;1.77;;;;;;;;;;5087257;28;20154;-58
2021/10/10 06:24:16;;;;;;;1.93;1.00;;;;;;;;;;5087202;28;20021;-58
2021/10/10 06:26:43;;;;;;;1.63;1.00;;;;;;;;;;5099257;28;20098;-58
2021/10/10 06:29:13;;;;;;;2.80;0.90;;;;;;;;;;5112550;28;20028;-58
2021/10/10 06:31:40;;;;;;;4.70;1.00;;;;;;;;;;5112229;28;20028;-58
2021/10/10 06:34:07;;;;;;;2.70;1.00;;;;;;;;;;5112460;28;20028;-58
2021/10/10 06:36:33;;;;;;;16.97;2.03;;;;;;;;;;5112193;28;20027;-58
2021/10/10 06:39:00;;;;;;;2.17;0.70;;;;;;;;;;5109864;28;20063;-58
2021/10/10 06:41:27;;;;;;;3.30;1.03;;;;;;;;;;5102806;28;20027;-58
2021/10/10 06:43:54;;;;;;;2.47;0.90;;;;;;;;;;5087197;28;20020;-58
2021/10/10 06:46:21;;;;;;;2.80;0.77;;;;;;;;;;5088055;28;20085;-58
2021/10/10 06:48:48;;;;;;;2.40;0.90;;;;;;;;;;5105437;28;20478;-58
2021/10/10 06:51:15;;;;;;;1.57;0.90;;;;;;;;;;5112362;28;20478;-58
2021/10/10 06:53:41;;;;;;;4.90;1.30;;;;;;;;;;5111783;28;20088;-58
2021/10/10 06:56:08;;;;;;;1.83;0.93;;;;;;;;;;5106487;28;20099;-58
2021/10/10 06:58:35;;;;;;;4.63;1.80;;;;;;;;;;5102104;28;20028;-58
2021/10/10 07:01:02;;;;;;;2.03;0.70;;;;;;;;;;5110498;28;20019;-58
2021/10/10 07:03:28;;;;;;;4.80;1.17;;;;;;;;;;5107148;28;20024;-58
2021/10/10 07:05:55;;;;;;;1.87;1.00;;;;;;;;;;5107280;28;20043;-57
2021/10/10 07:08:22;;;;;;;2.13;0.90;;;;;;;;;;5109499;28;20469;-57
2021/10/10 07:10:49;;;;;;;2.37;0.90;;;;;;;;;;5107285;28;20016;-57
2021/10/10 07:13:15;;;;;;;3.83;0.90;;;;;;;;;;5095308;28;20051;-58
2021/10/10 07:15:42;;;;;;;4.70;0.93;;;;;;;;;;5074831;28;20028;-58
2021/10/10 07:18:09;;;;;;;3.23;1.00;;;;;;;;;;5083189;28;20115;-58
2021/10/10 07:20:50;;;;;;;6.47;1.23;;;;;;;;;;5095360;28;20032;-57
2021/10/10 07:26:02;;;;;;;2.45;0.75;;;;;;;;;;5110711;28;20410;-58
2021/10/10 07:28:29;;;;;;;3.63;0.90;;;;;;;;;;5110213;28;20110;-58
2021/10/10 07:30:58;;;;;;;1.07;0.60;;;;;;;;;;5092601;28;20028;-57
2021/10/10 07:33:24;;;;;;;2.80;0.80;;;;;;;;;;5091643;28;20028;-57
2021/10/10 07:35:51;;;;;;;1.97;0.90;;;;;;;;;;5095003;28;20016;-58
2021/10/10 07:38:18;;;;;;;5.03;2.40;;;;;;;;;;5094990;28;20088;-58
2021/10/10 07:40:45;;;;;;;6.13;1.00;;;;;;;;;;5094326;28;20032;-57
2021/10/10 07:43:11;;;;;;;2.10;0.80;;;;;;;;;;5095120;28;20408;-57
2021/10/10 07:45:42;;;;;;;2.57;0.90;;;;;;;;;;5099320;28;20024;-58
2021/10/10 07:48:10;;;;;;;3.20;0.90;;;;;;;;;;5109665;28;20019;-57
2021/10/10 07:50:37;;;;;;;3.30;1.10;;;;;;;;;;5110262;28;20386;-58
2021/10/10 07:53:03;;;;;;;3.80;0.80;;;;;;;;;;5104252;28;20497;-58
2021/10/10 07:55:31;;;;;;;3.57;0.80;;;;;;;;;;5090469;28;20028;-58
2021/10/10 07:57:58;;;;;;;2.13;1.00;;;;;;;;;;5094350;28;20395;-58
2021/10/10 08:00:28;;;;;;;1.60;0.90;;;;;;;;;;5094516;28;20028;-57
2021/10/10 08:02:56;;;;;;;6.50;1.33;;;;;;;;;;5095528;28;20082;-57
2021/10/10 08:05:24;;;;;;;4.53;1.10;;;;;;;;;;5094477;28;20048;-57
2021/10/10 08:07:51;;;;;;;2.80;1.27;;;;;;;;;;5092342;28;20031;-58
2021/10/10 08:10:18;;;;;;;2.47;1.30;;;;;;;;;;5089136;28;20058;-58
2021/10/10 08:12:45;;;;;;;3.23;1.27;;;;;;;;;;5089139;28;20442;-58
2021/10/10 08:15:12;;;;;;;9.17;1.23;;;;;;;;;;5089256;28;20032;-58
2021/10/10 08:17:39;;;;;;;6.13;1.10;;;;;;;;;;5098961;28;20454;-57
2021/10/10 08:20:06;;;;;;;7.47;1.13;;;;;;;;;;5094079;28;20051;-58
2021/10/10 08:22:35;;;;;;;5.03;1.70;;;;;;;;;;5094642;28;20043;-58
2021/10/10 08:25:07;;;;;;;3.27;1.20;;;;;;;;;;5114121;28;20038;-57
2021/10/10 08:27:36;;;;;;;2.03;0.93;;;;;;;;;;5113723;28;20024;-58
2021/10/10 08:30:07;;;;;;;3.33;1.30;;;;;;;;;;5112770;28;20165;-57
2021/10/10 08:32:34;;;;;;;6.67;1.03;;;;;;;;;;5107423;28;20428;-58
2021/10/10 08:35:01;;;;;;;6.63;1.30;;;;;;;;;;5108196;28;20024;-58
2021/10/10 08:37:27;;;;;;;4.47;1.60;;;;;;;;;;5108931;28;20382;-57
2021/10/10 08:39:54;;;;;;;1.77;0.80;;;;;;;;;;5109731;28;20571;-58
2021/10/10 08:42:28;;;;;;;5.20;1.10;;;;;;;;;;5113722;28;20114;-57
2021/10/10 08:45:04;;;;;;;2.13;1.20;;;;;;;;;;5114064;28;20039;-57
2021/10/10 08:47:32;;;;;;;2.20;1.00;;;;;;;;;;5102774;28;20070;-58
2021/10/10 08:49:59;;;;;;;10.00;0.90;;;;;;;;;;5094493;28;20475;-58
2021/10/10 08:52:25;;;;;;;1.70;0.93;;;;;;;;;;5091523;28;20032;-58
2021/10/10 08:54:52;;;;;;;3.97;0.70;;;;;;;;;;5088572;28;20024;-58
2021/10/10 08:57:19;;;;;;;2.80;0.83;;;;;;;;;;5088410;28;20497;-58
2021/10/10 08:59:51;;;;;;;2.93;1.00;;;;;;;;;;5088395;28;20035;-58
2021/10/10 09:02:20;;;;;;;3.50;1.20;;;;;;;;;;5089360;28;20028;-58
2021/10/10 09:04:46;;;;;;;15.33;2.30;;;;;;;;;;5105896;28;20363;-57
2021/10/10 09:07:13;;;;;;;5.77;1.10;;;;;;;;;;5113298;28;20031;-57
2021/10/10 09:09:41;;;;;;;2.90;0.77;;;;;;;;;;5113795;28;20479;-58
2021/10/10 09:12:12;;;;;;;2.07;0.90;;;;;;;;;;5113206;28;20110;-57
2021/10/10 09:14:49;;;;;;;2.77;1.13;;;;;;;;;;5111873;28;20027;-58
2021/10/10 09:17:20;;;;;;;5.27;1.20;;;;;;;;;;5099594;28;20032;-58
2021/10/10 09:19:51;;;;;;;3.27;0.90;;;;;;;;;;5102454;28;20498;-57
2021/10/10 09:22:20;;;;;;;2.17;0.90;;;;;;;;;;5088112;28;20028;-58
2021/10/10 09:24:46;;;;;;;7.27;1.93;;;;;;;;;;5095373;28;20040;-57
2021/10/10 09:27:14;;;;;;;4.60;0.70;;;;;;;;;;5093120;28;20077;-57
2021/10/10 09:29:46;;;;;;;3.73;1.00;;;;;;;;;;5092571;28;20027;-57
2021/10/10 09:32:18;;;;;;;4.67;1.10;;;;;;;;;;5092833;28;20402;-58
2021/10/10 09:34:45;;;;;;;2.07;1.10;;;;;;;;;;5097423;28;20055;-58
2021/10/10 09:37:21;;;;;;;6.47;1.20;;;;;;;;;;5090483;28;20121;-58
2021/10/10 09:39:53;;;;;;;3.70;1.17;;;;;;;;;;5087765;28;20069;-58
2021/10/10 09:42:43;;;;;;;2.53;1.10;;;;;;;;;;5087583;28;20039;-58
2021/10/10 09:45:52;;;;;;;4.00;1.00;;;;;;;;;;5087635;28;20107;-58
2021/10/10 09:48:29;;;;;;;3.83;1.07;;;;;;;;;;5106926;28;20101;-58
2021/10/10 09:50:55;;;;;;;2.47;1.07;;;;;;;;;;5106169;28;20032;-57
2021/10/10 09:53:29;;;;;;;2.60;1.10;;;;;;;;;;5092585;28;20081;-57
2021/10/10 09:56:03;;;;;;;4.07;0.83;;;;;;;;;;5072518;28;20024;-58
2021/10/10 09:58:36;;;;;;;3.33;0.90;;;;;;;;;;5103161;28;20118;-57
2021/10/10 10:01:23;;;;;;;3.27;1.43;;;;;;;;;;5107898;28;20264;-58
2021/10/10 10:03:57;;;;;;;4.43;1.00;;;;;;;;;;5107332;28;20549;-58
2021/10/10 10:06:24;;;;;;;1.77;1.00;;;;;;;;;;5105258;28;20027;-57
2021/10/10 10:08:51;;;;;;;2.10;0.83;;;;;;;;;;5088058;28;20024;-58
2021/10/10 10:11:18;;;;;;;3.37;0.87;;;;;;;;;;5092328;28;20143;-58
2021/10/10 10:13:45;;;;;;;2.73;1.17;;;;;;;;;;5092224;28;20028;-57
2021/10/10 10:16:13;;;;;;;4.87;1.30;;;;;;;;;;5092580;28;20598;-58
2021/10/10 10:18:44;;;;;;;4.07;0.80;;;;;;;;;;5092089;28;20101;-57
2021/10/10 10:21:12;;;;;;;1.10;0.60;;;;;;;;;;5090502;28;20498;-57
2021/10/10 10:23:40;;;;;;;4.30;1.00;;;;;;;;;;5101750;28;20082;-58
2021/10/10 10:26:07;;;;;;;2.00;0.93;;;;;;;;;;5107665;28;20024;-57
2021/10/10 10:28:34;;;;;;;1.50;0.70;;;;;;;;;;5107218;28;20076;-58
2021/10/10 10:31:01;;;;;;;3.93;1.20;;;;;;;;;;5108098;28;20031;-57
2021/10/10 10:33:32;;;;;;;2.17;1.07;;;;;;;;;;5096835;28;20153;-57
2021/10/10 10:35:59;;;;;;;3.07;1.10;;;;;;;;;;5091514;28;20068;-57
2021/10/10 10:38:53;;;;;;;1.00;0.60;;;;;;;;;;5098605;28;20032;-58
2021/10/10 10:41:39;;;;;;;1.40;0.87;;;;;;;;;;5109210;28;20059;-57
2021/10/10 10:44:05;;;;;;;3.25;0.88;;;;;;;;;;5113718;28;20027;-57
2021/10/10 10:46:32;;;;;;;7.17;1.40;;;;;;;;;;5111064;28;20115;-57
2021/10/10 10:49:01;;;;;;;3.97;1.47;;;;;;;;;;5111352;28;20260;-58
2021/10/10 10:51:33;;;;;;;1.27;0.60;;;;;;;;;;5111156;28;20493;-58
2021/10/10 10:54:18;;;;;;;3.57;0.87;;;;;;;;;;5099312;28;20020;-57
2021/10/10 10:56:45;;;;;;;2.60;0.90;;;;;;;;;;5095754;28;20111;-58
2021/10/10 10:59:12;;;;;;;4.77;1.07;;;;;;;;;;5095545;28;20032;-58
2021/10/10 11:01:57;;;;;;;4.47;0.90;;;;;;;;;;5095674;28;20103;-58
2021/10/10 11:04:28;;;;;;;5.07;1.00;;;;;;;;;;5095455;28;20257;-58
2021/10/10 11:06:57;;;;;;;1.77;0.90;;;;;;;;;;5091743;28;20039;-57
2021/10/10 11:09:27;;;;;;;4.30;0.83;;;;;;;;;;5090957;28;20288;-58
2021/10/10 11:12:00;;;;;;;3.73;0.90;;;;;;;;;;5110202;28;20328;-57
2021/10/10 11:14:28;;;;;;;1.27;0.60;;;;;;;;;;5110603;28;20031;-58
2021/10/10 11:17:08;;;;;;;1.80;0.80;;;;;;;;;;5113467;28;20383;-57
2021/10/10 11:19:35;;;;;;;1.67;0.90;;;;;;;;;;5115855;28;20296;-57
2021/10/10 11:22:01;;;;;;;3.80;0.80;;;;;;;;;;5115338;28;20073;-57
2021/10/10 11:24:28;;;;;;;2.43;0.70;;;;;;;;;;5108294;28;20612;-58
2021/10/10 11:26:58;;;;;;;1.77;0.70;;;;;;;;;;5115295;28;20084;-58
2021/10/10 11:29:27;;;;;;;2.13;0.90;;;;;;;;;;5110739;28;20031;-58
2021/10/10 11:31:55;;;;;;;1.30;0.60;;;;;;;;;;5109998;28;20055;-58
2021/10/10 11:34:24;;;;;;;1.73;1.00;;;;;;;;;;5110410;28;20063;-58
2021/10/10 11:36:52;;;;;;;1.53;0.90;;;;;;;;;;5109940;28;20256;-58
2021/10/10 11:39:19;;;;;;;1.83;0.87;;;;;;;;;;5113987;28;20292;-57
2021/10/10 11:41:47;;;;;;;3.53;1.10;;;;;;;;;;5103068;28;20315;-57
2021/10/10 11:44:15;;;;;;;2.07;0.83;;;;;;;;;;5094578;28;20282;-57
2021/10/10 11:46:43;;;;;;;1.43;0.77;;;;;;;;;;5094869;28;20020;-58
2021/10/10 11:49:22;;;;;;;3.33;0.70;;;;;;;;;;5094456;28;20031;-58
2021/10/10 11:51:50;;;;;;;5.37;1.17;;;;;;;;;;5089833;28;20257;-58
2021/10/10 11:54:37;;;;;;;2.07;0.73;;;;;;;;;;5089098;28;20471;-58
2021/10/10 11:57:04;;;;;;;2.97;1.00;;;;;;;;;;5095901;28;20284;-58
2021/10/10 11:59:30;;;;;;;5.03;1.70;;;;;;;;;;5109915;28;20802;-58
2021/10/10 12:01:57;;;;;;;5.97;1.00;;;;;;;;;;5114345;28;20286;-58
2021/10/10 12:04:24;;;;;;;3.73;0.70;;;;;;;;;;5114821;28;20076;-57
2021/10/10 12:06:52;;;;;;;1.60;0.80;;;;;;;;;;5114425;28;20335;-57
2021/10/10 12:09:19;;;;;;;3.53;0.73;;;;;;;;;;5114325;28;20259;-58
2021/10/10 12:12:04;;;;;;;3.37;1.13;;;;;;;;;;5111984;28;20040;-57
2021/10/10 12:15:00;;;;;;;3.70;0.88;;;;;;;;;;5089323;28;20059;-57
2021/10/10 12:17:26;;;;;;;;;;;;;;;;;;5068387;28;20433;-58
2021/10/10 12:19:54;;;;;;;1.33;0.80;;;;;;;;;;5109793;28;20037;-58
2021/10/10 12:22:21;;;;;;;2.27;1.00;;;;;;;;;;5103698;28;20351;-57
2021/10/10 12:24:48;;;;;;;5.97;1.13;;;;;;;;;;5093773;28;20253;-58
2021/10/10 12:27:29;;;;;;;2.13;0.93;;;;;;;;;;5094088;28;20020;-57
2021/10/10 12:29:57;;;;;;;2.23;1.00;;;;;;;;;;5107022;28;20263;-58
2021/10/10 12:32:25;;;;;;;5.17;0.87;;;;;;;;;;5113910;28;20248;-58
2021/10/10 12:35:07;;;;;;;2.67;1.00;;;;;;;;;;5110285;28;20278;-58
2021/10/10 12:37:33;;;;;;;9.83;1.13;;;;;;;;;;5108918;28;20329;-58
2021/10/10 12:40:00;;;;;;;4.50;1.13;;;;;;;;;;5108719;28;20584;-57
2021/10/10 12:42:45;;;;;;;4.40;0.97;;;;;;;;;;5109096;28;20611;-58
2021/10/10 12:45:31;;;;;;;5.15;1.10;;;;;;;;;;5111116;28;20252;-57
2021/10/10 12:48:03;;;;;;;2.27;0.90;;;;;;;;;;5108675;28;20044;-57
2021/10/10 12:50:31;;;;;;;2.87;1.37;;;;;;;;;;5094252;28;20421;-58
2021/10/10 12:52:57;;;;;;;3.03;1.17;;;;;;;;;;5101009;28;20746;-59
2021/10/10 12:55:27;;;;;;;2.03;1.10;;;;;;;;;;5093002;28;20252;-58
2021/10/10 12:57:55;;;;;;;2.47;1.13;;;;;;;;;;5089623;28;20295;-59
2021/10/10 13:00:22;;;;;;;2.47;1.27;;;;;;;;;;5088272;28;20371;-59
2021/10/10 13:02:50;;;;;;;3.53;1.50;;;;;;;;;;5088307;28;20273;-59
2021/10/10 13:05:18;;;;;;;2.70;1.33;;;;;;;;;;5087544;28;20335;-59
2021/10/10 13:07:44;;;;;;;5.30;2.10;;;;;;;;;;5091067;28;20261;-59
2021/10/10 13:10:11;;;;;;;4.83;1.77;;;;;;;;;;5093249;28;20264;-59
2021/10/10 13:12:41;;;;;;;2.03;1.07;;;;;;;;;;5093001;28;20113;-59
2021/10/10 13:15:08;;;;;;;7.53;1.50;;;;;;;;;;5092925;28;20763;-59
2021/10/10 13:17:35;;;;;;;4.27;1.40;;;;;;;;;;5093219;28;20055;-59
2021/10/10 13:20:02;;;;;;;2.07;1.17;;;;;;;;;;5089983;28;20149;-60
2021/10/10 13:22:33;;;;;;;2.60;1.40;;;;;;;;;;5088065;28;20095;-59
2021/10/10 13:25:00;;;;;;;5.73;1.27;;;;;;;;;;5087902;28;20028;-59
2021/10/10 13:27:27;;;;;;;6.40;3.27;;;;;;;;;;5087956;28;20024;-59
2021/10/10 13:29:54;;;;;;;10.50;2.40;;;;;;;;;;5090475;28;20098;-60
2021/10/10 13:32:20;;;;;;;4.83;1.77;;;;;;;;;;5094041;28;20020;-60
2021/10/10 13:34:47;;;;;;;3.70;1.97;;;;;;;;;;5103676;28;20028;-59
2021/10/10 13:37:14;;;;;;;2.90;1.60;;;;;;;;;;5092916;28;20024;-58
2021/10/10 13:39:41;;;;;;;2.33;1.30;;;;;;;;;;5092754;28;20063;-59
2021/10/10 13:42:07;;;;;;;2.97;1.10;;;;;;;;;;5089785;28;20522;-59
2021/10/10 13:44:34;;;;;;;1.93;0.70;;;;;;;;;;5087787;28;20491;-60
2021/10/10 13:47:01;;;;;;;1.80;0.90;;;;;;;;;;5087251;28;20467;-59
2021/10/10 13:49:28;;;;;;;2.63;0.90;;;;;;;;;;5087377;28;20028;-59
2021/10/10 13:51:55;;;;;;;2.70;1.20;;;;;;;;;;5089824;28;20028;-59
2021/10/10 13:54:21;;;;;;;2.63;1.60;;;;;;;;;;5093492;28;20032;-59
2021/10/10 13:56:48;;;;;;;2.70;1.53;;;;;;;;;;5112736;28;20038;-59
2021/10/10 13:59:15;;;;;;;2.03;1.53;;;;;;;;;;5111073;28;20040;-60
2021/10/10 14:01:42;;;;;;;2.97;1.67;;;;;;;;;;5094398;28;20023;-60
2021/10/10 14:04:08;;;;;;;6.10;2.03;;;;;;;;;;5089637;28;20024;-60
2021/10/10 14:06:35;;;;;;;4.60;1.47;;;;;;;;;;5087093;28;20106;-59
2021/10/10 14:09:02;;;;;;;4.30;1.40;;;;;;;;;;5087473;28;20081;-59
2021/10/10 14:11:29;;;;;;;2.63;1.40;;;;;;;;;;5087259;28;20024;-60
2021/10/10 14:13:55;;;;;;;6.13;1.50;;;;;;;;;;5089192;28;20052;-59
2021/10/10 14:16:22;;;;;;;6.43;1.83;;;;;;;;;;5093606;28;20085;-60
2021/10/10 14:18:49;;;;;;;5.77;1.80;;;;;;;;;;5096488;28;20050;-60
2021/10/10 14:21:16;;;;;;;4.07;1.70;;;;;;;;;;5096216;28;20101;-60
2021/10/10 14:23:42;;;;;;;4.03;1.90;;;;;;;;;;5096316;28;20028;-60
2021/10/10 14:26:09;;;;;;;3.70;1.90;;;;;;;;;;5094692;28;20028;-60
2021/10/10 14:28:36;;;;;;;2.27;1.50;;;;;;;;;;5091389;28;20028;-60
2021/10/10 14:31:03;;;;;;;3.93;2.00;;;;;;;;;;5095274;28;20077;-60
2021/10/10 14:33:30;;;;;;;2.80;1.90;;;;;;;;;;5111791;28;20034;-60
2021/10/10 14:35:57;;;;;;;3.13;1.60;;;;;;;;;;5112270;28;20028;-60
2021/10/10 14:38:24;;;;;;;4.20;1.80;;;;;;;;;;5116606;28;20032;-59
2021/10/10 14:41:01;;;;;;;3.27;1.57;;;;;;;;;;5116339;28;20024;-60
2021/10/10 14:43:33;;;;;;;2.90;1.50;;;;;;;;;;5116269;28;20020;-59
2021/10/10 14:46:00;;;;;;;3.47;1.47;;;;;;;;;;5112402;28;20064;-60
2021/10/10 14:48:30;;;;;;;3.87;1.40;;;;;;;;;;5093426;28;20421;-60
2021/10/10 14:51:04;;;;;;;5.00;1.70;;;;;;;;;;5090863;28;20042;-60
2021/10/10 14:53:31;;;;;;;3.93;1.77;;;;;;;;;;5098773;28;20057;-60